Time;durP1;ratioP1;P1;durP2;ratioP2;P2;SDS_P1;SDS_P2;PMS_P1;PMS_P2;Temp;Humidity;BMP_temperature;BMP_pressure;BME280_temperature;BME280_humidity;BME280_pressure;Samples;Min_cycle;Max_cycle;Signal;HPM_P1;HPM_P2
2022/03/16 00:01:07;;;;;;;;;;;;;;;;;;4954922;28;136036;-68
2022/03/16 00:03:33;;;;;;;;;;;;;;;;;;4980546;28;116144;-68
2022/03/16 00:06:00;;;;;;;;;;;;;;;;;;4954586;28;114224;-68
2022/03/16 00:08:28;;;;;;;;;;;;;;;;;;4954124;28;137008;-68
2022/03/16 00:10:55;;;;;;;;;;;;;;;;;;4949400;28;121681;-68
2022/03/16 00:13:21;;;;;;;;;;;;;;;;;;4963937;28;111275;-68
2022/03/16 00:15:47;;;;;;;;;;;;;;;;;;4971558;28;122871;-68
2022/03/16 00:18:13;;;;;;;;;;;;;;;;;;4962000;28;136157;-68
2022/03/16 00:20:40;;;;;;;;;;;;;;;;;;4967061;28;135619;-68
2022/03/16 00:23:06;;;;;;;;;;;;;;;;;;4961935;28;121029;-68
2022/03/16 00:25:32;;;;;;;;;;;;;;;;;;4962902;28;126922;-68
2022/03/16 00:27:59;;;;;;;;;;;;;;;;;;4956171;28;117515;-68
2022/03/16 00:30:25;;;;;;;;;;;;;;;;;;4966592;28;121919;-68
2022/03/16 00:32:51;;;;;;;;;;;;;;;;;;4968517;28;106709;-68
2022/03/16 00:35:17;;;;;;;;;;;;;;;;;;4970691;28;123067;-68
2022/03/16 00:37:46;;;;;;;;;;;;;;;;;;4959099;28;109069;-68
2022/03/16 00:40:14;;;;;;;;;;;;;;;;;;4969735;28;109042;-67
2022/03/16 00:42:40;;;;;;;;;;;;;;;;;;4961319;28;122408;-68
2022/03/16 00:45:06;;;;;;;;;;;;;;;;;;4969181;28;135551;-67
2022/03/16 00:47:33;;;;;;;;;;;;;;;;;;4956725;28;107225;-67
2022/03/16 00:49:59;;;;;;;;;;;;;;;;;;4964855;28;123152;-67
2022/03/16 00:52:25;;;;;;;;;;;;;;;;;;4970397;28;135806;-67
2022/03/16 00:54:51;;;;;;;;;;;;;;;;;;4959175;28;135368;-67
2022/03/16 00:57:18;;;;;;;;;;;;;;;;;;4965939;28;107879;-67
2022/03/16 00:59:44;;;;;;;;;;;;;;;;;;4951842;28;125895;-67
2022/03/16 01:02:10;;;;;;;;;;;;;;;;;;4958553;28;121842;-67
2022/03/16 01:04:37;;;;;;;;;;;;;;;;;;4969292;28;134860;-67
2022/03/16 01:07:03;;;;;;;;;;;;;;;;;;4971117;28;135629;-67
2022/03/16 01:09:29;;;;;;;;;;;;;;;;;;4962587;28;122548;-67
2022/03/16 01:11:56;;;;;;;;;;;;;;;;;;4965703;28;106647;-67
2022/03/16 01:14:22;;;;;;;;;;;;;;;;;;4967853;28;136890;-67
2022/03/16 01:16:48;;;;;;;;;;;;;;;;;;4974176;28;122967;-67
2022/03/16 01:19:15;;;;;;;;;;;;;;;;;;4965044;28;136450;-67
2022/03/16 01:21:41;;;;;;;;;;;;;;;;;;4975467;28;122033;-67
2022/03/16 01:24:07;;;;;;;;;;;;;;;;;;4969757;28;107773;-67
2022/03/16 01:26:35;;;;;;;;;;;;;;;;;;4957585;28;109213;-68
2022/03/16 01:29:02;;;;;;;;;;;;;;;;;;4959278;28;105792;-67
2022/03/16 01:31:29;;;;;;;;;;;;;;;;;;4960716;28;138868;-67
2022/03/16 01:33:55;;;;;;;;;;;;;;;;;;4966854;28;123151;-67
2022/03/16 01:36:21;;;;;;;;;;;;;;;;;;4969402;28;121925;-67
2022/03/16 01:38:47;;;;;;;;;;;;;;;;;;4971922;28;135197;-67
2022/03/16 01:41:14;;;;;;;;;;;;;;;;;;4962536;28;106132;-67
2022/03/16 01:43:40;;;;;;;;;;;;;;;;;;4964698;28;136380;-67
2022/03/16 01:46:06;;;;;;;;;;;;;;;;;;4967632;28;134813;-67
2022/03/16 01:48:33;;;;;;;;;;;;;;;;;;4970405;28;119580;-67
2022/03/16 01:50:59;;;;;;;;;;;;;;;;;;4969270;28;118169;-67
2022/03/16 01:53:26;;;;;;;;;;;;;;;;;;4967870;28;136656;-67
2022/03/16 01:55:52;;;;;;;;;;;;;;;;;;4968424;28;116767;-67
2022/03/16 01:58:19;;;;;;;;;;;;;;;;;;4968979;28;135854;-67
2022/03/16 02:00:45;;;;;;;;;;;;;;;;;;4972942;28;108645;-67
2022/03/16 02:03:12;;;;;;;;;;;;;;;;;;4984531;28;138127;-67
2022/03/16 02:05:38;;;;;;;;;;;;;;;;;;4963021;28;135930;-67
2022/03/16 02:08:05;;;;;;;;;;;;;;;;;;4968115;28;122925;-67
2022/03/16 02:10:31;;;;;;;;;;;;;;;;;;4952213;28;135678;-67
2022/03/16 02:12:57;;;;;;;;;;;;;;;;;;4958991;28;108126;-67
2022/03/16 02:15:24;;;;;;;;;;;;;;;;;;4950106;28;122570;-67
2022/03/16 02:17:50;;;;;;;;;;;;;;;;;;4950219;28;135378;-67
2022/03/16 02:20:17;;;;;;;;;;;;;;;;;;4949009;28;136803;-67
2022/03/16 02:22:43;;;;;;;;;;;;;;;;;;4970414;28;122473;-67
2022/03/16 02:25:10;;;;;;;;;;;;;;;;;;4956342;28;136412;-67
2022/03/16 02:27:37;;;;;;;;;;;;;;;;;;4961122;28;123942;-67
2022/03/16 02:30:03;;;;;;;;;;;;;;;;;;4968314;28;137201;-67
2022/03/16 02:32:29;;;;;;;;;;;;;;;;;;4967152;28;136333;-67
2022/03/16 02:34:56;;;;;;;;;;;;;;;;;;4966177;28;106869;-67
2022/03/16 02:37:22;;;;;;;;;;;;;;;;;;4961947;28;119645;-67
2022/03/16 02:39:48;;;;;;;;;;;;;;;;;;4960818;28;134352;-67
2022/03/16 02:42:14;;;;;;;;;;;;;;;;;;4971252;28;106286;-67
2022/03/16 02:44:41;;;;;;;;;;;;;;;;;;4969218;28;138293;-67
2022/03/16 02:47:07;;;;;;;;;;;;;;;;;;4960737;28;122099;-67
2022/03/16 02:49:34;;;;;;;;;;;;;;;;;;4966363;28;135727;-67
2022/03/16 02:52:01;;;;;;;;;;;;;;;;;;4966325;28;140163;-68
2022/03/16 02:54:27;;;;;;;;;;;;;;;;;;4960896;28;120370;-68
2022/03/16 02:56:53;;;;;;;;;;;;;;;;;;4961480;28;136347;-67
2022/03/16 02:59:20;;;;;;;;;;;;;;;;;;4970533;28;135556;-66
2022/03/16 03:01:46;;;;;;;;;;;;;;;;;;4963955;28;123061;-66
2022/03/16 03:04:13;;;;;;;;;;;;;;;;;;4965418;28;136448;-66
2022/03/16 03:06:39;;;;;;;;;;;;;;;;;;4965299;28;123240;-66
2022/03/16 03:09:05;;;;;;;;;;;;;;;;;;4969597;28;128112;-67
2022/03/16 03:11:31;;;;;;;;;;;;;;;;;;4965177;28;137218;-68
2022/03/16 03:13:57;;;;;;;;;;;;;;;;;;4969278;28;123147;-66
2022/03/16 03:16:24;;;;;;;;;;;;;;;;;;4963728;28;129182;-66
2022/03/16 03:18:50;;;;;;;;;;;;;;;;;;4955791;28;136347;-66
2022/03/16 03:21:16;;;;;;;;;;;;;;;;;;4963889;28;123141;-66
2022/03/16 03:23:43;;;;;;;;;;;;;;;;;;4950104;28;133064;-67
2022/03/16 03:26:09;;;;;;;;;;;;;;;;;;4961985;28;135410;-67
2022/03/16 03:28:35;;;;;;;;;;;;;;;;;;4961133;28;135431;-66
2022/03/16 03:31:03;;;;;;;;;;;;;;;;;;4967582;28;124946;-66
2022/03/16 03:33:29;;;;;;;;;;;;;;;;;;4968795;28;125396;-66
2022/03/16 03:35:56;;;;;;;;;;;;;;;;;;4962009;28;128894;-67
2022/03/16 03:38:22;;;;;;;;;;;;;;;;;;4953720;28;136222;-68
2022/03/16 03:40:48;;;;;;;;;;;;;;;;;;4949704;28;124002;-68
2022/03/16 03:43:15;;;;;;;;;;;;;;;;;;4954421;28;106319;-68
2022/03/16 03:45:41;;;;;;;;;;;;;;;;;;4968720;28;136472;-68
2022/03/16 03:48:07;;;;;;;;;;;;;;;;;;4956239;28;123009;-68
2022/03/16 03:50:34;;;;;;;;;;;;;;;;;;4952675;28;136125;-68
2022/03/16 03:53:00;;;;;;;;;;;;;;;;;;4965469;28;123183;-68
2022/03/16 03:55:26;;;;;;;;;;;;;;;;;;4967201;28;136479;-68
2022/03/16 03:57:53;;;;;;;;;;;;;;;;;;4951702;28;115553;-68
2022/03/16 04:00:19;;;;;;;;;;;;;;;;;;4983559;28;122284;-68
2022/03/16 04:02:46;;;;;;;;;;;;;;;;;;4951575;28;137631;-69
2022/03/16 04:05:12;;;;;;;;;;;;;;;;;;4967658;28;107950;-68
2022/03/16 04:07:39;;;;;;;;;;;;;;;;;;4950273;28;122120;-69
2022/03/16 04:10:05;;;;;;;;;;;;;;;;;;4967832;28;135497;-68
2022/03/16 04:12:31;;;;;;;;;;;;;;;;;;4964616;28;113260;-68
2022/03/16 04:14:57;;;;;;;;;;;;;;;;;;4966269;28;136394;-68
2022/03/16 04:17:24;;;;;;;;;;;;;;;;;;4967687;28;137942;-68
2022/03/16 04:19:50;;;;;;;;;;;;;;;;;;4955881;28;121607;-67
2022/03/16 04:22:16;;;;;;;;;;;;;;;;;;4983788;28;136898;-67
2022/03/16 04:24:42;;;;;;;;;;;;;;;;;;4955812;28;137047;-67
2022/03/16 04:27:09;;;;;;;;;;;;;;;;;;4948735;28;122503;-67
2022/03/16 04:29:35;;;;;;;;;;;;;;;;;;4958289;28;137442;-68
2022/03/16 04:32:01;;;;;;;;;;;;;;;;;;4970920;28;106881;-67
2022/03/16 04:34:28;;;;;;;;;;;;;;;;;;4950617;28;135867;-67
2022/03/16 04:36:54;;;;;;;;;;;;;;;;;;4951798;28;108193;-68
2022/03/16 04:39:20;;;;;;;;;;;;;;;;;;4963335;28;122130;-67
2022/03/16 04:41:47;;;;;;;;;;;;;;;;;;4965487;28;135136;-67
2022/03/16 04:44:13;;;;;;;;;;;;;;;;;;4959322;28;137566;-67
2022/03/16 04:46:39;;;;;;;;;;;;;;;;;;4968028;28;124108;-67
2022/03/16 04:49:06;;;;;;;;;;;;;;;;;;4948431;28;135903;-67
2022/03/16 04:51:32;;;;;;;;;;;;;;;;;;4965391;28;136464;-67
2022/03/16 04:53:58;;;;;;;;;;;;;;;;;;4950367;28;137633;-67
2022/03/16 04:56:25;;;;;;;;;;;;;;;;;;4947266;28;138051;-67
2022/03/16 04:58:51;;;;;;;;;;;;;;;;;;4969162;28;119041;-67
2022/03/16 05:01:17;;;;;;;;;;;;;;;;;;4963423;28;137140;-68
2022/03/16 05:03:44;;;;;;;;;;;;;;;;;;4969978;28;136291;-67
2022/03/16 05:06:10;;;;;;;;;;;;;;;;;;4950221;28;123613;-67
2022/03/16 05:08:37;;;;;;;;;;;;;;;;;;4958298;28;133776;-68
2022/03/16 05:11:04;;;;;;;;;;;;;;;;;;4967439;28;134313;-67
2022/03/16 05:13:30;;;;;;;;;;;;;;;;;;4961842;28;123146;-67
2022/03/16 05:15:57;;;;;;;;;;;;;;;;;;4962371;28;135604;-66
2022/03/16 05:18:23;;;;;;;;;;;;;;;;;;4951214;28;122874;-67
2022/03/16 05:20:49;;;;;;;;;;;;;;;;;;4960023;28;134968;-67
2022/03/16 05:23:16;;;;;;;;;;;;;;;;;;4967946;28;135815;-66
2022/03/16 05:25:42;;;;;;;;;;;;;;;;;;4970218;28;123579;-67
2022/03/16 05:28:08;;;;;;;;;;;;;;;;;;4962116;28;136894;-67
2022/03/16 05:30:34;;;;;;;;;;;;;;;;;;4965501;28;106500;-67
2022/03/16 05:33:01;;;;;;;;;;;;;;;;;;4951043;28;121993;-67
2022/03/16 05:35:27;;;;;;;;;;;;;;;;;;4963897;28;135106;-67
2022/03/16 05:37:53;;;;;;;;;;;;;;;;;;4968872;28;121947;-68
2022/03/16 05:40:20;;;;;;;;;;;;;;;;;;4969672;28;136525;-69
2022/03/16 05:42:46;;;;;;;;;;;;;;;;;;4969518;28;113296;-67
2022/03/16 05:45:14;;;;;;;;;;;;;;;;;;4968129;28;123438;-67
2022/03/16 05:47:40;;;;;;;;;;;;;;;;;;4962521;28;135807;-67
2022/03/16 05:50:07;;;;;;;;;;;;;;;;;;4957982;28;125434;-67
2022/03/16 05:52:34;;;;;;;;;;;;;;;;;;4950754;28;122421;-67
2022/03/16 05:55:01;;;;;;;;;;;;;;;;;;4951182;28;137160;-67
2022/03/16 05:57:27;;;;;;;;;;;;;;;;;;4955021;28;135523;-67
2022/03/16 05:59:54;;;;;;;;;;;;;;;;;;4971785;28;106846;-67
2022/03/16 06:02:20;;;;;;;;;;;;;;;;;;4962174;28;134504;-67
2022/03/16 06:04:47;;;;;;;;;;;;;;;;;;4965284;28;119946;-67
2022/03/16 06:07:13;;;;;;;;;;;;;;;;;;4949766;28;136441;-67
2022/03/16 06:09:44;;;;;;;;;;;;;;;;;;4958778;28;136467;-67
2022/03/16 06:12:10;;;;;;;;;;;;;;;;;;4957353;28;107883;-67
2022/03/16 06:14:37;;;;;;;;;;;;;;;;;;4964759;28;137771;-67
2022/03/16 06:17:03;;;;;;;;;;;;;;;;;;4950770;28;135736;-67
2022/03/16 06:19:29;;;;;;;;;;;;;;;;;;4980888;28;123093;-67
2022/03/16 06:21:56;;;;;;;;;;;;;;;;;;4964313;28;138194;-67
2022/03/16 06:24:22;;;;;;;;;;;;;;;;;;4949938;28;125451;-67
2022/03/16 06:26:48;;;;;;;;;;;;;;;;;;4950551;28;137282;-67
2022/03/16 06:29:15;;;;;;;;;;;;;;;;;;4965615;28;136854;-68
2022/03/16 06:31:41;;;;;;;;;;;;;;;;;;4967988;28;123143;-68
2022/03/16 06:34:07;;;;;;;;;;;;;;;;;;4960530;28;135519;-66
2022/03/16 06:36:34;;;;;;;;;;;;;;;;;;4967256;28;122855;-66
2022/03/16 06:39:00;;;;;;;;;;;;;;;;;;4972274;28;123952;-69
2022/03/16 06:41:26;;;;;;;;;;;;;;;;;;4958451;28;107532;-69
2022/03/16 06:43:53;;;;;;;;;;;;;;;;;;4965372;28;123200;-69
2022/03/16 06:46:19;;;;;;;;;;;;;;;;;;4954388;28;137109;-68
2022/03/16 06:48:45;;;;;;;;;;;;;;;;;;4960253;28;127082;-66
2022/03/16 06:51:12;;;;;;;;;;;;;;;;;;4964328;28;105949;-65
2022/03/16 06:53:38;;;;;;;;;;;;;;;;;;4969367;28;136525;-67
2022/03/16 06:56:04;;;;;;;;;;;;;;;;;;4955904;28;135771;-68
2022/03/16 06:58:30;;;;;;;;;;;;;;;;;;4959448;28;123204;-65
2022/03/16 07:00:57;;;;;;;;;;;;;;;;;;4954827;28;136331;-65
2022/03/16 07:03:23;;;;;;;;;;;;;;;;;;4949324;28;122425;-65
2022/03/16 07:05:49;;;;;;;;;;;;;;;;;;4948691;28;136896;-67
2022/03/16 07:08:16;;;;;;;;;;;;;;;;;;4963371;28;111946;-67
2022/03/16 07:10:42;;;;;;;;;;;;;;;;;;4963908;28;107007;-67
2022/03/16 07:13:10;;;;;;;;;;;;;;;;;;4960125;28;136696;-67
2022/03/16 07:15:37;;;;;;;;;;;;;;;;;;4956618;28;127240;-65
2022/03/16 07:18:03;;;;;;;;;;;;;;;;;;4957211;28;120580;-66
2022/03/16 07:20:29;;;;;;;;;;;;;;;;;;4964935;28;136373;-67
2022/03/16 07:22:55;;;;;;;;;;;;;;;;;;4987096;28;136392;-71
2022/03/16 07:25:22;;;;;;;;;;;;;;;;;;4952572;28;137237;-67
2022/03/16 07:27:49;;;;;;;;;;;;;;;;;;4961193;28;115798;-68
2022/03/16 07:30:16;;;;;;;;;;;;;;;;;;4960072;28;119374;-67
2022/03/16 07:32:44;;;;;;;;;;;;;;;;;;4966834;28;107310;-67
2022/03/16 07:35:10;;;;;;;;;;;;;;;;;;4965157;28;136736;-67
2022/03/16 07:37:36;;;;;;;;;;;;;;;;;;4964296;28;124429;-68
2022/03/16 07:40:03;;;;;;;;;;;;;;;;;;4962949;28;137253;-68
2022/03/16 07:42:33;;;;;;;;;;;;;;;;;;4949744;28;136805;-67
2022/03/16 07:45:00;;;;;;;;;;;;;;;;;;4968308;28;106219;-67
2022/03/16 07:47:26;;;;;;;;;;;;;;;;;;4968678;28;135684;-67
2022/03/16 07:50:03;;;;;;;;;;;;;;;;;;4967080;28;120615;-67
2022/03/16 07:52:30;;;;;;;;;;;;;;;;;;4970756;28;137356;-66
2022/03/16 07:54:56;;;;;;;;;;;;;;;;;;4966923;28;137374;-69
2022/03/16 07:57:22;;;;;;;;;;;;;;;;;;4951573;28;107208;-65
2022/03/16 07:59:49;;;;;;;;;;;;;;;;;;4948315;28;136696;-66
2022/03/16 08:02:16;;;;;;;;;;;;;;;;;;4968801;28;130927;-66
2022/03/16 08:04:42;;;;;;;;;;;;;;;;;;4966832;28;123145;-66
2022/03/16 08:07:12;;;;;;;;;;;;;;;;;;4967606;28;136507;-66
2022/03/16 08:09:38;;;;;;;;;;;;;;;;;;4959466;28;123125;-67
2022/03/16 08:12:04;;;;;;;;;;;;;;;;;;4961309;28;136608;-68
2022/03/16 08:14:30;;;;;;;;;;;;;;;;;;4958443;28;136986;-66
2022/03/16 08:16:57;;;;;;;;;;;;;;;;;;4963252;28;121834;-67
2022/03/16 08:19:24;;;;;;;;;;;;;;;;;;4962423;28;136235;-67
2022/03/16 08:21:50;;;;;;;;;;;;;;;;;;4966385;28;139175;-67
2022/03/16 08:24:17;;;;;;;;;;;;;;;;;;4962461;28;123181;-66
2022/03/16 08:26:48;;;;;;;;;;;;;;;;;;4965172;28;134932;-67
2022/03/16 08:29:14;;;;;;;;;;;;;;;;;;4969092;28;135832;-68
2022/03/16 08:31:40;;;;;;;;;;;;;;;;;;4964119;28;136932;-68
2022/03/16 08:34:07;;;;;;;;;;;;;;;;;;4964341;28;136830;-67
2022/03/16 08:36:33;;;;;;;;;;;;;;;;;;4971494;28;106053;-68
2022/03/16 08:39:02;;;;;;;;;;;;;;;;;;4984411;28;132156;-69
2022/03/16 08:41:31;;;;;;;;;;;;;;;;;;4984553;28;130204;-69
2022/03/16 08:43:57;;;;;;;;;;;;;;;;;;4957954;28;121862;-66
2022/03/16 08:46:24;;;;;;;;;;;;;;;;;;4961316;28;134893;-67
2022/03/16 08:48:50;;;;;;;;;;;;;;;;;;4970769;28;135152;-67
2022/03/16 08:51:16;;;;;;;;;;;;;;;;;;4958925;28;112210;-67
2022/03/16 08:53:43;;;;;;;;;;;;;;;;;;4963820;28;134045;-67
2022/03/16 08:56:11;;;;;;;;;;;;;;;;;;4960499;28;123204;-67
2022/03/16 08:58:37;;;;;;;;;;;;;;;;;;4957598;28;136340;-68
2022/03/16 09:01:04;;;;;;;;;;;;;;;;;;4960112;28;138535;-67
2022/03/16 09:03:34;;;;;;;;;;;;;;;;;;4960712;28;123149;-67
2022/03/16 09:06:01;;;;;;;;;;;;;;;;;;4953633;28;135196;-66
2022/03/16 09:08:27;;;;;;;;;;;;;;;;;;4954951;28;108620;-68
2022/03/16 09:10:55;;;;;;;;;;;;;;;;;;4961549;28;118305;-66
2022/03/16 09:13:21;;;;;;;;;;;;;;;;;;4954804;28;137198;-68
2022/03/16 09:15:49;;;;;;;;;;;;;;;;;;4953694;28;128328;-68
2022/03/16 09:18:15;;;;;;;;;;;;;;;;;;4960198;28;136913;-68
2022/03/16 09:20:44;;;;;;;;;;;;;;;;;;4965785;28;135434;-69
2022/03/16 09:23:10;;;;;;;;;;;;;;;;;;4955799;28;109368;-68
2022/03/16 09:25:36;;;;;;;;;;;;;;;;;;4956704;28;133488;-67
2022/03/16 09:28:02;;;;;;;;;;;;;;;;;;4961894;28;136958;-66
2022/03/16 09:30:29;;;;;;;;;;;;;;;;;;4969186;28;107936;-66
2022/03/16 09:32:57;;;;;;;;;;;;;;;;;;4962234;28;135850;-67
2022/03/16 09:35:24;;;;;;;;;;;;;;;;;;4957720;28;118255;-68
2022/03/16 09:37:50;;;;;;;;;;;;;;;;;;4956813;28;137004;-65
2022/03/16 09:40:17;;;;;;;;;;;;;;;;;;4955169;28;137551;-67
2022/03/16 09:42:43;;;;;;;;;;;;;;;;;;4964229;28;105848;-67
2022/03/16 09:45:10;;;;;;;;;;;;;;;;;;4961428;28;134137;-68
2022/03/16 09:47:37;;;;;;;;;;;;;;;;;;4962763;28;135859;-67
2022/03/16 09:50:03;;;;;;;;;;;;;;;;;;4963550;28;109847;-67
2022/03/16 09:52:29;;;;;;;;;;;;;;;;;;4969639;28;135166;-67
2022/03/16 09:54:56;;;;;;;;;;;;;;;;;;4962627;28;138249;-67
2022/03/16 09:57:22;;;;;;;;;;;;;;;;;;4964830;28;136198;-67
2022/03/16 09:59:48;;;;;;;;;;;;;;;;;;4969717;28;138202;-66
2022/03/16 10:02:21;;;;;;;;;;;;;;;;;;4968861;28;123357;-67
2022/03/16 10:04:47;;;;;;;;;;;;;;;;;;4964645;28;135179;-67
2022/03/16 10:07:14;;;;;;;;;;;;;;;;;;4968564;28;138409;-69
2022/03/16 10:15:10;;;;;;;;;;;;;;;;;;4960073;28;112381;-69
2022/03/16 10:17:43;;;;;;;;;;;;;;;;;;4960440;28;123300;-67
2022/03/16 10:20:09;;;;;;;;;;;;;;;;;;4960013;28;136734;-69
2022/03/16 10:22:38;;;;;;;;;;;;;;;;;;4967664;28;122536;-69
2022/03/16 10:25:04;;;;;;;;;;;;;;;;;;4983952;28;107501;-69
2022/03/16 10:27:31;;;;;;;;;;;;;;;;;;4963498;28;135696;-69
2022/03/16 10:29:57;;;;;;;;;;;;;;;;;;4965427;28;124885;-68
2022/03/16 10:32:23;;;;;;;;;;;;;;;;;;4981162;28;137336;-69
2022/03/16 10:34:50;;;;;;;;;;;;;;;;;;4958228;28;137014;-68
2022/03/16 10:37:16;;;;;;;;;;;;;;;;;;4963293;28;123991;-69
2022/03/16 10:39:43;;;;;;;;;;;;;;;;;;4971601;28;109206;-67
2022/03/16 10:47:39;;;;;;;;;;;;;;;;;;4963218;28;111849;-68
2022/03/16 10:50:09;;;;;;;;;;;;;;;;;;4959999;28;122257;-71
2022/03/16 10:52:35;;;;;;;;;;;;;;;;;;4957925;28;132341;-69
2022/03/16 10:55:05;;;;;;;;;;;;;;;;;;4961868;28;137168;-69
2022/03/16 10:57:31;;;;;;;;;;;;;;;;;;4964705;28;112017;-69
2022/03/16 10:59:58;;;;;;;;;;;;;;;;;;4962743;28;135302;-69
2022/03/16 11:02:27;;;;;;;;;;;;;;;;;;4970812;28;120770;-68
2022/03/16 11:04:54;;;;;;;;;;;;;;;;;;4977693;28;135159;-70
2022/03/16 11:07:20;;;;;;;;;;;;;;;;;;4965679;28;123996;-68
2022/03/16 11:09:46;;;;;;;;;;;;;;;;;;4966687;28;124384;-69
2022/03/16 11:14:58;;;;;;;;;;;;;;;;;;4963952;28;135772;-70
2022/03/16 11:17:24;;;;;;;;;;;;;;;;;;4966324;28;105902;-67
2022/03/16 11:19:52;;;;;;;;;;;;;;;;;;4955247;28;107310;-69
2022/03/16 11:22:18;;;;;;;;;;;;;;;;;;4965635;28;136332;-67
2022/03/16 11:24:46;;;;;;;;;;;;;;;;;;4969776;28;106453;-67
2022/03/16 11:27:12;;;;;;;;;;;;;;;;;;4967240;28;138507;-67
2022/03/16 11:29:39;;;;;;;;;;;;;;;;;;4969649;28;123867;-68
2022/03/16 11:32:05;;;;;;;;;;;;;;;;;;4961443;28;136885;-69
2022/03/16 11:34:33;;;;;;;;;;;;;;;;;;4965784;28;128438;-67
2022/03/16 11:36:59;;;;;;;;;;;;;;;;;;4966131;28;122551;-67
2022/03/16 11:39:26;;;;;;;;;;;;;;;;;;4963010;28;133553;-67
2022/03/16 11:41:52;;;;;;;;;;;;;;;;;;4964862;28;137236;-68
2022/03/16 11:44:18;;;;;;;;;;;;;;;;;;4971479;28;109706;-67
2022/03/16 11:46:46;;;;;;;;;;;;;;;;;;4965991;28;134559;-67
2022/03/16 11:49:12;;;;;;;;;;;;;;;;;;4967295;28;122135;-67
2022/03/16 11:51:43;;;;;;;;;;;;;;;;;;4949128;28;135262;-66
2022/03/16 11:54:09;;;;;;;;;;;;;;;;;;4955444;28;134317;-67
2022/03/16 11:56:39;;;;;;;;;;;;;;;;;;4968930;28;122469;-66
2022/03/16 11:59:06;;;;;;;;;;;;;;;;;;4950250;28;135363;-66
2022/03/16 12:01:32;;;;;;;;;;;;;;;;;;4947512;28;137677;-66
2022/03/16 12:03:58;;;;;;;;;;;;;;;;;;4947811;28;122096;-66
2022/03/16 12:06:25;;;;;;;;;;;;;;;;;;4962796;28;120951;-65
2022/03/16 12:08:51;;;;;;;;;;;;;;;;;;4970100;28;125562;-66
2022/03/16 12:14:02;;;;;;;;;;;;;;;;;;4957168;28;135746;-66
2022/03/16 12:16:29;;;;;;;;;;;;;;;;;;4958473;28;111779;-66
2022/03/16 12:18:55;;;;;;;;;;;;;;;;;;4952196;28;135791;-66
2022/03/16 12:21:24;;;;;;;;;;;;;;;;;;4957419;28;137134;-66
2022/03/16 12:23:52;;;;;;;;;;;;;;;;;;4962773;28;121919;-66
2022/03/16 12:26:18;;;;;;;;;;;;;;;;;;4950227;28;137684;-66
2022/03/16 12:28:59;;;;;;;;;;;;;;;;;;4955723;28;126424;-66
2022/03/16 12:31:25;;;;;;;;;;;;;;;;;;4951127;28;125454;-66
2022/03/16 12:33:52;;;;;;;;;;;;;;;;;;4959706;28;137520;-66
2022/03/16 12:36:18;;;;;;;;;;;;;;;;;;4965823;28;123068;-66
2022/03/16 12:38:45;;;;;;;;;;;;;;;;;;4951396;28;136531;-66
2022/03/16 12:43:56;;;;;;;;;;;;;;;;;;4959744;28;106560;-66
2022/03/16 12:46:25;;;;;;;;;;;;;;;;;;4960862;28;137400;-66
2022/03/16 12:48:53;;;;;;;;;;;;;;;;;;4951142;28;136336;-66
2022/03/16 12:51:19;;;;;;;;;;;;;;;;;;4958843;28;123254;-66
2022/03/16 12:53:45;;;;;;;;;;;;;;;;;;4969220;28;137122;-66
2022/03/16 12:56:13;;;;;;;;;;;;;;;;;;4970375;28;121794;-66
2022/03/16 12:58:39;;;;;;;;;;;;;;;;;;4955776;28;136149;-66
2022/03/16 13:01:06;;;;;;;;;;;;;;;;;;4953568;28;107223;-67
2022/03/16 13:03:32;;;;;;;;;;;;;;;;;;4970440;28;123062;-67
2022/03/16 13:05:59;;;;;;;;;;;;;;;;;;4963726;28;135116;-66
2022/03/16 13:08:27;;;;;;;;;;;;;;;;;;4950244;28;133503;-67
2022/03/16 13:13:44;;;;;;;;;;;;;;;;;;4961781;28;107835;-67
2022/03/16 13:16:11;;;;;;;;;;;;;;;;;;4970383;28;121995;-67
2022/03/16 13:18:37;;;;;;;;;;;;;;;;;;4965810;28;136871;-70
2022/03/16 13:21:03;;;;;;;;;;;;;;;;;;4965624;28;138048;-67
2022/03/16 13:23:31;;;;;;;;;;;;;;;;;;4960108;28;126205;-67
2022/03/16 13:25:59;;;;;;;;;;;;;;;;;;4957073;28;137772;-70
2022/03/16 13:28:26;;;;;;;;;;;;;;;;;;4967111;28;137075;-67
2022/03/16 13:30:52;;;;;;;;;;;;;;;;;;4951698;28;121800;-66
2022/03/16 13:33:19;;;;;;;;;;;;;;;;;;4972065;28;136453;-66
2022/03/16 13:35:45;;;;;;;;;;;;;;;;;;4962618;28;121833;-66
2022/03/16 13:38:11;;;;;;;;;;;;;;;;;;4967258;28;134722;-66
2022/03/16 13:40:38;;;;;;;;;;;;;;;;;;4968514;28;128293;-67
2022/03/16 13:43:07;;;;;;;;;;;;;;;;;;4985695;28;122479;-66
2022/03/16 13:45:33;;;;;;;;;;;;;;;;;;4952880;28;136559;-66
2022/03/16 13:47:59;;;;;;;;;;;;;;;;;;4959511;28;137502;-65
2022/03/16 13:50:27;;;;;;;;;;;;;;;;;;4968562;28;123547;-66
2022/03/16 13:52:53;;;;;;;;;;;;;;;;;;4966429;28;130903;-65
2022/03/16 13:55:20;;;;;;;;;;;;;;;;;;4968113;28;132715;-65
2022/03/16 13:57:46;;;;;;;;;;;;;;;;;;4969503;28;135334;-64
2022/03/16 14:00:12;;;;;;;;;;;;;;;;;;4967032;28;136449;-64
2022/03/16 14:02:39;;;;;;;;;;;;;;;;;;4967478;28;122051;-66
2022/03/16 14:05:06;;;;;;;;;;;;;;;;;;4958272;28;136802;-64
2022/03/16 14:07:34;;;;;;;;;;;;;;;;;;4970038;28;137195;-65
2022/03/16 14:10:00;;;;;;;;;;;;;;;;;;4968014;28;121847;-66
2022/03/16 14:12:27;;;;;;;;;;;;;;;;;;4967284;28;117234;-64
2022/03/16 14:14:54;;;;;;;;;;;;;;;;;;4967436;28;137740;-65
2022/03/16 14:17:20;;;;;;;;;;;;;;;;;;4967804;28;123855;-65
2022/03/16 14:19:46;;;;;;;;;;;;;;;;;;4968684;28;136957;-63
2022/03/16 14:22:14;;;;;;;;;;;;;;;;;;4960000;28;121979;-63
2022/03/16 14:24:40;;;;;;;;;;;;;;;;;;4964834;28;114014;-64
2022/03/16 14:27:16;;;;;;;;;;;;;;;;;;4964750;28;135533;-64
2022/03/16 14:29:42;;;;;;;;;;;;;;;;;;4965622;28;114864;-64
2022/03/16 14:32:09;;;;;;;;;;;;;;;;;;4968490;28;135724;-65
2022/03/16 14:34:35;;;;;;;;;;;;;;;;;;4963731;28;130083;-65
2022/03/16 14:37:01;;;;;;;;;;;;;;;;;;4969898;28;126266;-66
2022/03/16 14:39:31;;;;;;;;;;;;;;;;;;4972200;28;134178;-66
2022/03/16 14:41:58;;;;;;;;;;;;;;;;;;4969307;28;108329;-65
2022/03/16 14:44:24;;;;;;;;;;;;;;;;;;4963929;28;137059;-65
2022/03/16 14:46:50;;;;;;;;;;;;;;;;;;4964505;28;135563;-65
2022/03/16 14:49:18;;;;;;;;;;;;;;;;;;4949375;28;120114;-65
2022/03/16 14:51:44;;;;;;;;;;;;;;;;;;4950469;28;137590;-65
2022/03/16 14:54:11;;;;;;;;;;;;;;;;;;4950214;28;136156;-65
2022/03/16 14:56:37;;;;;;;;;;;;;;;;;;4956346;28;117278;-64
2022/03/16 14:59:03;;;;;;;;;;;;;;;;;;4968322;28;134027;-64
2022/03/16 15:01:29;;;;;;;;;;;;;;;;;;4960282;28;106390;-65
2022/03/16 15:03:56;;;;;;;;;;;;;;;;;;4961923;28;135654;-66
2022/03/16 15:06:22;;;;;;;;;;;;;;;;;;4964619;28;129371;-64
2022/03/16 15:08:48;;;;;;;;;;;;;;;;;;4965712;28;105971;-65
2022/03/16 15:11:15;;;;;;;;;;;;;;;;;;4960100;28;136881;-64
2022/03/16 15:13:41;;;;;;;;;;;;;;;;;;4965872;28;136064;-64
2022/03/16 15:16:08;;;;;;;;;;;;;;;;;;4963119;28;122761;-64
2022/03/16 15:18:34;;;;;;;;;;;;;;;;;;4960361;28;136298;-66
2022/03/16 15:21:02;;;;;;;;;;;;;;;;;;4963410;28;137658;-65
2022/03/16 15:23:29;;;;;;;;;;;;;;;;;;4965963;28;107127;-65
2022/03/16 15:25:55;;;;;;;;;;;;;;;;;;4965563;28;117941;-65
2022/03/16 15:28:21;;;;;;;;;;;;;;;;;;4965421;28;121858;-65
2022/03/16 15:30:47;;;;;;;;;;;;;;;;;;4967534;28;136913;-65
2022/03/16 15:33:14;;;;;;;;;;;;;;;;;;4959143;28;138432;-65
2022/03/16 15:35:41;;;;;;;;;;;;;;;;;;4967686;28;123259;-65
2022/03/16 15:38:07;;;;;;;;;;;;;;;;;;4962304;28;135068;-66
2022/03/16 15:43:18;;;;;;;;;;;;;;;;;;4965564;28;121331;-66
2022/03/16 15:45:45;;;;;;;;;;;;;;;;;;4961844;28;135654;-66
2022/03/16 15:48:11;;;;;;;;;;;;;;;;;;4963566;28;116431;-66
2022/03/16 15:50:37;;;;;;;;;;;;;;;;;;4962270;28;121211;-67
2022/03/16 15:53:04;;;;;;;;;;;;;;;;;;4967054;28;135938;-67
2022/03/16 15:55:30;;;;;;;;;;;;;;;;;;4967159;28;106352;-66
2022/03/16 15:57:56;;;;;;;;;;;;;;;;;;4958680;28;137234;-66
2022/03/16 16:00:23;;;;;;;;;;;;;;;;;;4965098;28;138199;-66
2022/03/16 16:02:50;;;;;;;;;;;;;;;;;;4960570;28;107179;-67
2022/03/16 16:05:17;;;;;;;;;;;;;;;;;;4963820;28;136562;-66
2022/03/16 16:07:46;;;;;;;;;;;;;;;;;;4966897;28;123054;-65
2022/03/16 16:10:15;;;;;;;;;;;;;;;;;;4960385;28;135806;-66
2022/03/16 16:12:42;;;;;;;;;;;;;;;;;;4965877;28;137780;-65
2022/03/16 16:15:08;;;;;;;;;;;;;;;;;;4956483;28;125774;-65
2022/03/16 16:17:34;;;;;;;;;;;;;;;;;;4964279;28;130317;-66
2022/03/16 16:20:01;;;;;;;;;;;;;;;;;;4966473;28;135760;-66
2022/03/16 16:22:27;;;;;;;;;;;;;;;;;;4958086;28;122112;-65
2022/03/16 16:24:53;;;;;;;;;;;;;;;;;;4966707;28;131830;-65
2022/03/16 16:27:20;;;;;;;;;;;;;;;;;;4968352;28;137778;-66
2022/03/16 16:29:46;;;;;;;;;;;;;;;;;;4963137;28;133210;-65
2022/03/16 16:32:12;;;;;;;;;;;;;;;;;;4961558;28;136503;-65
2022/03/16 16:34:38;;;;;;;;;;;;;;;;;;4964105;28;123242;-65
2022/03/16 16:37:05;;;;;;;;;;;;;;;;;;4959203;28;135788;-66
2022/03/16 16:39:31;;;;;;;;;;;;;;;;;;4958713;28;134513;-65
2022/03/16 16:44:42;;;;;;;;;;;;;;;;;;4953134;28;136565;-68
2022/03/16 16:47:10;;;;;;;;;;;;;;;;;;4961982;28;138962;-70
2022/03/16 16:49:38;;;;;;;;;;;;;;;;;;4969407;28;116563;-66
2022/03/16 16:52:04;;;;;;;;;;;;;;;;;;4965948;28;137896;-65